JST166 NZHN-YSSY
Flight info
| Callsign | JST166 |
|---|---|
| Flight time | N/A |
| Altitude | 31000 |
| Route | LEKUS Y562 MADEP N774 MARLN |
| Aircraft | A320/M-SDE3FGHIRWY/LB1 |
Departure
| Time | 2026-04-14 21:31 |
|---|---|
| Airport | Hamilton International Airport (NZHN) |
Arrival
| Time | N/A |
|---|---|
| Airport | Sydney Kingsford Smith International Airport (YSSY) |
| Time | Latitude | Longitude | Altitude | Speed | Heading |
|---|---|---|---|---|---|
| 2026-04-14 21:00 | -37.86562 | 175.33570 | 160 ft | 0 kts | 15° |
| 2026-04-14 21:22 | -37.86556 | 175.33572 | 156 ft | 2 kts | 13° |
| 2026-04-14 21:22 | -37.86544 | 175.33570 | 159 ft | 4 kts | 345° |
| 2026-04-14 21:22 | -37.86527 | 175.33538 | 159 ft | 5 kts | 278° |
| 2026-04-14 21:22 | -37.86551 | 175.33499 | 159 ft | 7 kts | 220° |
| 2026-04-14 21:23 | -37.86565 | 175.33446 | 160 ft | 7 kts | 285° |
| 2026-04-14 21:23 | -37.86551 | 175.33390 | 161 ft | 5 kts | 287° |
| 2026-04-14 21:23 | -37.86549 | 175.33382 | 161 ft | 0 kts | 286° |
| 2026-04-14 21:27 | -37.86548 | 175.33375 | 162 ft | 0 kts | 286° |
| 2026-04-14 21:27 | -37.86545 | 175.33366 | 162 ft | 2 kts | 286° |
| 2026-04-14 21:27 | -37.86539 | 175.33338 | 164 ft | 3 kts | 286° |
| 2026-04-14 21:28 | -37.86533 | 175.33315 | 165 ft | 3 kts | 287° |
| 2026-04-14 21:28 | -37.86547 | 175.33267 | 165 ft | 9 kts | 214° |
| 2026-04-14 21:28 | -37.86630 | 175.33244 | 164 ft | 15 kts | 193° |
| 2026-04-14 21:28 | -37.86739 | 175.33207 | 165 ft | 17 kts | 195° |
| 2026-04-14 21:29 | -37.86855 | 175.33163 | 165 ft | 19 kts | 197° |
| 2026-04-14 21:29 | -37.86986 | 175.33110 | 165 ft | 20 kts | 199° |
| 2026-04-14 21:29 | -37.87126 | 175.33061 | 165 ft | 22 kts | 197° |
| 2026-04-14 21:29 | -37.87273 | 175.33004 | 165 ft | 22 kts | 196° |
| 2026-04-14 21:30 | -37.87406 | 175.32970 | 166 ft | 17 kts | 180° |
| 2026-04-14 21:30 | -37.87468 | 175.32942 | 165 ft | 11 kts | 315° |
| 2026-04-14 21:30 | -37.87393 | 175.32958 | 166 ft | 17 kts | 17° |
| 2026-04-14 21:30 | -37.87009 | 175.33097 | 165 ft | 96 kts | 16° |
| 2026-04-14 21:31 | -37.86156 | 175.33403 | 167 ft | 154 kts | 16° |
| 2026-04-14 21:31 | -37.85054 | 175.33817 | 639 ft | 163 kts | 14° |
| 2026-04-14 21:31 | -37.83984 | 175.34243 | 1390 ft | 161 kts | 8° |
| 2026-04-14 21:31 | -37.82905 | 175.34631 | 2066 ft | 167 kts | 7° |
| 2026-04-14 21:32 | -37.81723 | 175.35039 | 2343 ft | 184 kts | 6° |
| 2026-04-14 21:32 | -37.80419 | 175.35484 | 2478 ft | 205 kts | 8° |
| 2026-04-14 21:32 | -37.78970 | 175.35984 | 2666 ft | 227 kts | 8° |
| 2026-04-14 21:32 | -37.77387 | 175.36541 | 2887 ft | 247 kts | 9° |
| 2026-04-14 21:33 | -37.75640 | 175.37160 | 3003 ft | 274 kts | 9° |
| 2026-04-14 21:33 | -37.73784 | 175.37831 | 3018 ft | 279 kts | 10° |
| 2026-04-14 21:33 | -37.71913 | 175.38520 | 3019 ft | 281 kts | 10° |
| 2026-04-14 21:33 | -37.70036 | 175.39212 | 3017 ft | 281 kts | 11° |
| 2026-04-14 21:34 | -37.68163 | 175.39897 | 3024 ft | 280 kts | 10° |
| 2026-04-14 21:34 | -37.66294 | 175.40578 | 3022 ft | 280 kts | 10° |
| 2026-04-14 21:34 | -37.64387 | 175.41048 | 3291 ft | 280 kts | 353° |
| 2026-04-14 21:34 | -37.62524 | 175.40697 | 4219 ft | 265 kts | 333° |
| 2026-04-14 21:35 | -37.60929 | 175.39646 | 5041 ft | 255 kts | 313° |
| 2026-04-14 21:35 | -37.59746 | 175.38048 | 5842 ft | 246 kts | 295° |
| 2026-04-14 21:35 | -37.59055 | 175.36114 | 6625 ft | 240 kts | 279° |
| 2026-04-14 21:35 | -37.58878 | 175.34041 | 7385 ft | 238 kts | 264° |
| 2026-04-14 21:36 | -37.59202 | 175.32007 | 8135 ft | 238 kts | 249° |
| 2026-04-14 21:36 | -37.59985 | 175.30154 | 8882 ft | 242 kts | 240° |
| 2026-04-14 21:36 | -37.60884 | 175.28354 | 9550 ft | 246 kts | 240° |
| 2026-04-14 21:36 | -37.61795 | 175.26525 | 9712 ft | 246 kts | 240° |
| 2026-04-14 21:37 | -37.62701 | 175.24695 | 9744 ft | 246 kts | 240° |
| 2026-04-14 21:37 | -37.63604 | 175.22868 | 9749 ft | 245 kts | 240° |
| 2026-04-14 21:37 | -37.64478 | 175.20963 | 9744 ft | 254 kts | 246° |
| 2026-04-14 21:37 | -37.65179 | 175.18850 | 9743 ft | 261 kts | 249° |
| 2026-04-14 21:38 | -37.65867 | 175.16678 | 9748 ft | 270 kts | 249° |
| 2026-04-14 21:38 | -37.66573 | 175.14442 | 9749 ft | 280 kts | 249° |
| 2026-04-14 21:38 | -37.67369 | 175.12191 | 9735 ft | 283 kts | 240° |
| 2026-04-14 21:38 | -37.68560 | 175.10180 | 9744 ft | 285 kts | 234° |
| 2026-04-14 21:39 | -37.69726 | 175.08170 | 9866 ft | 288 kts | 243° |
| 2026-04-14 21:39 | -37.70311 | 175.05734 | 10320 ft | 296 kts | 264° |
| 2026-04-14 21:39 | -37.70054 | 175.03130 | 10902 ft | 306 kts | 283° |
| 2026-04-14 21:39 | -37.69357 | 175.00571 | 11521 ft | 310 kts | 284° |
| 2026-04-14 21:40 | -37.68636 | 174.98033 | 12115 ft | 313 kts | 284° |